sensor_id;sensor_type;location;lat;lon;timestamp;pressure;altitude;pressure_sealevel;temperature;humidity
65054;BME280;51639;47.828;35.038;2023-04-26T00:14:13;99637.09;;;13.23;100.00
65054;BME280;51639;47.828;35.038;2023-04-26T00:29:15;99649.03;;;13.17;100.00
65054;BME280;51639;47.828;35.038;2023-04-26T00:44:17;99663.53;;;12.92;100.00
65054;BME280;51639;47.828;35.038;2023-04-26T00:59:19;99651.56;;;12.68;100.00
65054;BME280;51639;47.828;35.038;2023-04-26T01:14:22;99645.56;;;12.51;100.00
65054;BME280;51639;47.828;35.038;2023-04-26T01:29:25;99639.66;;;12.52;100.00
65054;BME280;51639;47.828;35.038;2023-04-26T01:44:27;99628.88;;;12.27;100.00
65054;BME280;51639;47.828;35.038;2023-04-26T01:59:29;99630.78;;;12.05;100.00
65054;BME280;51639;47.828;35.038;2023-04-26T02:14:31;99631.41;;;12.09;100.00
65054;BME280;51639;47.828;35.038;2023-04-26T02:29:34;99636.47;;;11.59;100.00
65054;BME280;51639;47.828;35.038;2023-04-26T02:44:44;99639.19;;;11.59;100.00
65054;BME280;51639;47.828;35.038;2023-04-26T02:59:46;99646.16;;;11.73;100.00
65054;BME280;51639;47.828;35.038;2023-04-26T03:14:48;99646.59;;;11.59;100.00
65054;BME280;51639;47.828;35.038;2023-04-26T03:29:50;99639.00;;;11.54;100.00
65054;BME280;51639;47.828;35.038;2023-04-26T03:44:52;99645.19;;;11.54;100.00
65054;BME280;51639;47.828;35.038;2023-04-26T03:59:54;99632.25;;;11.46;100.00
65054;BME280;51639;47.828;35.038;2023-04-26T04:14:56;99640.50;;;11.55;100.00
65054;BME280;51639;47.828;35.038;2023-04-26T04:29:58;99662.91;;;11.59;100.00
65054;BME280;51639;47.828;35.038;2023-04-26T04:45:04;99668.56;;;12.03;100.00
65054;BME280;51639;47.828;35.038;2023-04-26T05:00:07;99665.34;;;12.17;100.00
65054;BME280;51639;47.828;35.038;2023-04-26T05:15:13;99677.06;;;12.39;100.00
65054;BME280;51639;47.828;35.038;2023-04-26T05:30:15;99661.47;;;13.18;100.00
65054;BME280;51639;47.828;35.038;2023-04-26T05:45:17;99668.41;;;13.99;100.00
65054;BME280;51639;47.828;35.038;2023-04-26T06:00:19;99679.09;;;14.88;100.00
65054;BME280;51639;47.828;35.038;2023-04-26T06:15:24;99680.28;;;16.23;100.00
65054;BME280;51639;47.828;35.038;2023-04-26T06:30:26;99683.47;;;16.84;100.00
65054;BME280;51639;47.828;35.038;2023-04-26T06:45:28;99682.44;;;17.25;100.00
65054;BME280;51639;47.828;35.038;2023-04-26T07:00:33;99688.31;;;18.79;100.00
65054;BME280;51639;47.828;35.038;2023-04-26T07:15:35;99697.25;;;19.51;100.00
65054;BME280;51639;47.828;35.038;2023-04-26T07:30:37;99691.84;;;20.10;100.00
65054;BME280;51639;47.828;35.038;2023-04-26T07:45:40;99691.16;;;20.21;100.00
65054;BME280;51639;47.828;35.038;2023-04-26T08:00:42;99703.91;;;20.19;100.00
65054;BME280;51639;47.828;35.038;2023-04-26T08:15:45;99686.44;;;20.27;100.00
65054;BME280;51639;47.828;35.038;2023-04-26T08:30:48;99690.56;;;20.54;100.00
65054;BME280;51639;47.828;35.038;2023-04-26T08:45:50;99693.53;;;20.45;100.00
65054;BME280;51639;47.828;35.038;2023-04-26T09:00:53;99690.38;;;20.74;100.00
65054;BME280;51639;47.828;35.038;2023-04-26T09:15:55;99680.16;;;21.31;100.00
65054;BME280;51639;47.828;35.038;2023-04-26T09:30:57;99660.25;;;21.94;100.00
65054;BME280;51639;47.828;35.038;2023-04-26T09:45:59;99665.34;;;21.67;100.00
65054;BME280;51639;47.828;35.038;2023-04-26T10:01:02;99676.84;;;21.77;100.00
65054;BME280;51639;47.828;35.038;2023-04-26T10:16:05;99670.94;;;22.31;100.00
65054;BME280;51639;47.828;35.038;2023-04-26T10:31:07;99665.63;;;22.91;100.00
65054;BME280;51639;47.828;35.038;2023-04-26T10:46:32;99671.06;;;22.55;100.00
65054;BME280;51639;47.828;35.038;2023-04-26T11:01:36;99647.06;;;23.94;93.85
65054;BME280;51639;47.828;35.038;2023-04-26T11:16:39;99652.81;;;24.58;83.52
65054;BME280;51639;47.828;35.038;2023-04-26T11:31:41;99651.44;;;24.08;72.74
65054;BME280;51639;47.828;35.038;2023-04-26T11:46:43;99626.28;;;22.16;80.04
65054;BME280;51639;47.828;35.038;2023-04-26T12:01:49;99612.41;;;21.35;79.34
65054;BME280;51639;47.828;35.038;2023-04-26T12:17:06;99614.91;;;21.44;79.70
65054;BME280;51639;47.828;35.038;2023-04-26T12:32:08;99604.38;;;21.26;81.77
65054;BME280;51639;47.828;35.038;2023-04-26T12:47:10;99599.09;;;21.45;80.82
65054;BME280;51639;47.828;35.038;2023-04-26T13:02:12;99588.28;;;21.53;79.92
65054;BME280;51639;47.828;35.038;2023-04-26T13:17:14;99578.78;;;21.42;78.60
65054;BME280;51639;47.828;35.038;2023-04-26T13:32:17;99574.28;;;20.84;81.37
65054;BME280;51639;47.828;35.038;2023-04-26T13:47:19;99592.09;;;20.94;80.68
65054;BME280;51639;47.828;35.038;2023-04-26T14:02:21;99579.78;;;20.84;78.30
65054;BME280;51639;47.828;35.038;2023-04-26T14:17:23;99572.00;;;20.88;80.48
65054;BME280;51639;47.828;35.038;2023-04-26T14:32:26;99577.00;;;20.56;78.55
65054;BME280;51639;47.828;35.038;2023-04-26T14:47:32;99559.72;;;20.61;83.83
65054;BME280;51639;47.828;35.038;2023-04-26T15:02:34;99547.44;;;20.67;85.96
65054;BME280;51639;47.828;35.038;2023-04-26T15:17:37;99539.34;;;20.36;91.07
65054;BME280;51639;47.828;35.038;2023-04-26T15:32:39;99530.03;;;20.05;93.72
65054;BME280;51639;47.828;35.038;2023-04-26T15:47:41;99537.00;;;19.95;96.29
65054;BME280;51639;47.828;35.038;2023-04-26T16:02:44;99515.38;;;19.66;100.00
65054;BME280;51639;47.828;35.038;2023-04-26T16:17:46;99521.69;;;19.29;100.00
65054;BME280;51639;47.828;35.038;2023-04-26T16:32:48;99535.03;;;19.05;100.00
65054;BME280;51639;47.828;35.038;2023-04-26T16:47:50;99543.72;;;18.98;100.00
65054;BME280;51639;47.828;35.038;2023-04-26T17:02:52;99557.41;;;18.87;100.00
65054;BME280;51639;47.828;35.038;2023-04-26T17:17:55;99559.97;;;18.64;100.00
65054;BME280;51639;47.828;35.038;2023-04-26T17:32:57;99568.66;;;18.37;100.00
65054;BME280;51639;47.828;35.038;2023-04-26T17:47:59;99563.72;;;18.21;100.00
65054;BME280;51639;47.828;35.038;2023-04-26T18:03:01;99555.88;;;18.08;100.00
65054;BME280;51639;47.828;35.038;2023-04-26T18:18:05;99566.22;;;17.98;100.00
65054;BME280;51639;47.828;35.038;2023-04-26T18:33:08;99555.19;;;17.72;100.00
65054;BME280;51639;47.828;35.038;2023-04-26T18:48:10;99567.72;;;17.59;100.00
65054;BME280;51639;47.828;35.038;2023-04-26T19:03:12;99554.09;;;17.64;100.00
65054;BME280;51639;47.828;35.038;2023-04-26T19:18:15;99547.56;;;17.62;100.00
65054;BME280;51639;47.828;35.038;2023-04-26T19:33:18;99542.72;;;17.57;100.00
65054;BME280;51639;47.828;35.038;2023-04-26T19:48:20;99531.19;;;17.53;100.00
65054;BME280;51639;47.828;35.038;2023-04-26T20:03:23;99549.84;;;17.49;100.00
65054;BME280;51639;47.828;35.038;2023-04-26T20:18:25;99533.38;;;17.49;100.00
65054;BME280;51639;47.828;35.038;2023-04-26T20:33:27;99527.16;;;17.48;100.00
65054;BME280;51639;47.828;35.038;2023-04-26T20:48:29;99522.19;;;17.32;100.00
65054;BME280;51639;47.828;35.038;2023-04-26T21:03:31;99511.00;;;17.15;100.00
65054;BME280;51639;47.828;35.038;2023-04-26T21:18:35;99497.81;;;16.99;100.00
65054;BME280;51639;47.828;35.038;2023-04-26T21:33:37;99500.84;;;16.86;100.00
65054;BME280;51639;47.828;35.038;2023-04-26T21:48:42;99490.06;;;16.83;100.00
65054;BME280;51639;47.828;35.038;2023-04-26T22:03:44;99499.72;;;16.78;100.00
65054;BME280;51639;47.828;35.038;2023-04-26T22:18:47;99483.69;;;16.71;100.00
65054;BME280;51639;47.828;35.038;2023-04-26T22:33:49;99472.78;;;16.62;100.00
65054;BME280;51639;47.828;35.038;2023-04-26T22:48:52;99484.81;;;16.64;100.00
65054;BME280;51639;47.828;35.038;2023-04-26T23:03:54;99479.03;;;16.62;100.00
65054;BME280;51639;47.828;35.038;2023-04-26T23:18:56;99464.78;;;16.44;100.00
65054;BME280;51639;47.828;35.038;2023-04-26T23:33:58;99460.16;;;16.35;100.00
65054;BME280;51639;47.828;35.038;2023-04-26T23:49:00;99459.22;;;16.38;100.00
